createdAt,value
2018-08-25T00:00:38.788Z,66.3
2018-08-25T00:01:19.311Z,66.68
2018-08-25T00:01:59.791Z,66.58
2018-08-25T00:02:40.302Z,66.49
2018-08-25T00:03:20.951Z,65.91
2018-08-25T00:04:01.402Z,66.49
2018-08-25T00:04:41.903Z,66.58
2018-08-25T00:05:22.410Z,66.49
2018-08-25T00:06:02.910Z,66.3
2018-08-25T00:06:43.429Z,66.3
2018-08-25T00:07:23.965Z,66.39
2018-08-25T00:08:04.463Z,66.49
2018-08-25T00:08:44.988Z,66.49
2018-08-25T00:09:25.483Z,66.1
2018-08-25T00:10:05.955Z,66.39
2018-08-25T00:10:46.504Z,66.58
2018-08-25T00:11:26.951Z,66.49
2018-08-25T00:12:07.462Z,66.58
2018-08-25T00:12:48.009Z,66.52
2018-08-25T00:13:28.462Z,66.49
2018-08-25T00:14:08.979Z,66.58
2018-08-25T00:14:49.507Z,66.49
2018-08-25T00:15:30.007Z,66.3
2018-08-25T00:16:10.525Z,66.3
2018-08-25T00:16:50.994Z,66.3
2018-08-25T00:17:31.501Z,66.39
2018-08-25T00:18:11.949Z,66.3
2018-08-25T00:18:52.447Z,66.49
2018-08-25T00:19:34.358Z,66.88
2018-08-25T00:20:15.642Z,66.78
2018-08-25T00:20:56.173Z,66.68
2018-08-25T00:21:37.227Z,66.78
2018-08-25T00:22:17.760Z,66.78
2018-08-25T00:22:58.179Z,66.68
2018-08-25T00:23:38.715Z,66.88
2018-08-25T00:24:19.242Z,66.68
2018-08-25T00:24:59.709Z,66.68
2018-08-25T00:25:40.220Z,66.78
2018-08-25T00:26:20.713Z,67.16
2018-08-25T00:27:01.198Z,66.88
2018-08-25T00:27:41.694Z,67.65
2018-08-25T00:28:22.189Z,67.65
2018-08-25T00:29:02.684Z,67.93
2018-08-25T00:29:43.152Z,68.13
2018-08-25T00:30:23.702Z,68.03
2018-08-25T00:31:04.187Z,68.13
2018-08-25T00:31:44.650Z,68.13
2018-08-25T00:32:25.254Z,67.83
2018-08-25T00:33:05.769Z,67.74
2018-08-25T00:33:46.255Z,68.03
2018-08-25T00:34:26.759Z,68.13
2018-08-25T00:35:07.299Z,68.22
2018-08-25T00:35:47.794Z,68.13
2018-08-25T00:36:28.300Z,68.7
2018-08-25T00:37:08.793Z,68.6
2018-08-25T00:37:49.302Z,68.6
2018-08-25T00:38:29.757Z,68.6
2018-08-25T00:39:10.290Z,68.7
2018-08-25T00:39:50.805Z,68.6
2018-08-25T00:40:31.352Z,68.22
2018-08-25T00:41:11.837Z,68.22
2018-08-25T00:41:52.303Z,68.41
2018-08-25T00:42:32.790Z,68.51
2018-08-25T00:43:13.281Z,68.41
2018-08-25T00:43:53.956Z,68.6
2018-08-25T00:44:34.426Z,69.15
2018-08-25T00:45:14.918Z,69.18
2018-08-25T00:45:55.403Z,68.9
2018-08-25T00:46:35.833Z,68.9
2018-08-25T00:47:16.359Z,69.15
2018-08-25T00:47:57.253Z,69.28
2018-08-25T00:48:37.745Z,69.76
2018-08-25T00:49:18.238Z,69.67
2018-08-25T00:49:58.745Z,69.38
2018-08-25T00:50:39.215Z,69.28
2018-08-25T00:51:19.817Z,69.06
2018-08-25T00:52:00.241Z,69.63
2018-08-25T00:52:40.788Z,69.82
2018-08-25T00:53:21.238Z,69.53
2018-08-25T00:54:02.563Z,69.92
2018-08-25T00:54:43.025Z,70.11
2018-08-25T00:55:23.888Z,70.68
2018-08-25T00:56:04.737Z,70.4
2018-08-25T00:56:46.339Z,70.5
2018-08-25T00:57:28.432Z,70.5
2018-08-25T00:58:09.397Z,70.4
2018-08-25T00:58:51.158Z,70.68
2018-08-25T00:59:32.212Z,70.68
2018-08-25T01:00:13.388Z,70.3
2018-08-25T01:00:54.244Z,70.17
2018-08-25T01:01:36.340Z,71.08
2018-08-25T01:02:16.445Z,70.68
2018-08-25T01:02:56.912Z,70.88
2018-08-25T01:03:37.406Z,70.98
2018-08-25T01:04:17.909Z,70.68
2018-08-25T01:04:58.448Z,71.08
2018-08-25T01:05:38.940Z,70.4
2018-08-25T01:06:19.475Z,71.17
2018-08-25T01:06:59.940Z,70.43
2018-08-25T01:07:40.505Z,69.82
2018-08-25T01:08:20.944Z,69.82
2018-08-25T01:09:01.455Z,69.85
2018-08-25T01:09:41.970Z,70.05
2018-08-25T01:10:22.446Z,69.47
2018-08-25T01:11:02.959Z,69.76
2018-08-25T01:11:43.506Z,69.76
2018-08-25T01:12:23.921Z,69.85
2018-08-25T01:13:04.450Z,69.18
2018-08-25T01:13:44.926Z,68.8
2018-08-25T01:14:25.376Z,68.99
2018-08-25T01:15:05.892Z,69.09
2018-08-25T01:15:46.444Z,68.8
2018-08-25T01:16:26.875Z,69.28
2018-08-25T01:17:07.348Z,69.47
2018-08-25T01:17:47.850Z,69.67
2018-08-25T01:18:28.343Z,69.95
2018-08-25T01:19:08.836Z,69.67
2018-08-25T01:19:49.352Z,69.57
2018-08-25T01:20:29.942Z,69.85
2018-08-25T01:21:10.453Z,69.67
2018-08-25T01:21:50.948Z,69.57
2018-08-25T01:22:31.425Z,69.95
2018-08-25T01:23:11.901Z,69.85
2018-08-25T01:23:52.391Z,70.72
2018-08-25T01:24:32.881Z,70.43
2018-08-25T01:25:13.329Z,70.53
2018-08-25T01:25:53.844Z,70.43
2018-08-25T01:26:34.308Z,70.05
2018-08-25T01:27:14.848Z,69.85
2018-08-25T01:27:55.505Z,70.05
2018-08-25T01:28:35.977Z,70.24
2018-08-25T01:29:16.470Z,69.95
2018-08-25T01:29:56.987Z,70.15
2018-08-25T01:30:37.524Z,70.24
2018-08-25T01:31:18.044Z,70.34
2018-08-25T01:31:58.492Z,70.09
2018-08-25T01:32:38.994Z,70.05
2018-08-25T01:33:19.448Z,70.24
2018-08-25T01:33:59.975Z,69.95
2018-08-25T01:34:40.484Z,70.28
2018-08-25T01:35:20.935Z,69.95
2018-08-25T01:36:01.433Z,70.15
2018-08-25T01:36:41.949Z,70.72
2018-08-25T01:37:22.433Z,70.34
2018-08-25T01:38:02.946Z,70.43
2018-08-25T01:38:43.488Z,70.37
2018-08-25T01:39:23.997Z,70.24
2018-08-25T01:40:04.484Z,71.11
2018-08-25T01:40:44.985Z,71.01
2018-08-25T01:41:25.452Z,71.11
2018-08-25T01:42:05.922Z,70.92
2018-08-25T01:42:46.462Z,71.14
2018-08-25T01:43:26.902Z,71.14
2018-08-25T01:44:07.422Z,70.92
2018-08-25T01:44:47.871Z,70.72
2018-08-25T01:45:28.411Z,70.95
2018-08-25T01:46:08.858Z,70.76
2018-08-25T01:46:49.338Z,70.76
2018-08-25T01:47:29.850Z,71.24
2018-08-25T01:48:10.352Z,70.76
2018-08-25T01:48:50.815Z,70.62
2018-08-25T01:49:31.489Z,71.2
2018-08-25T01:50:11.840Z,71.2
2018-08-25T01:50:52.303Z,71.3
2018-08-25T01:51:32.822Z,70.92
2018-08-25T01:52:13.291Z,71.11
2018-08-25T01:52:53.779Z,70.43
2018-08-25T01:53:34.256Z,71.11
2018-08-25T01:54:14.768Z,70.62
2018-08-25T01:54:55.227Z,70.62
2018-08-25T01:55:36.068Z,70.82
2018-08-25T01:56:16.555Z,70.92
2018-08-25T01:56:57.093Z,70.72
2018-08-25T01:57:37.611Z,70.92
2018-08-25T01:58:18.096Z,71.01
2018-08-25T01:58:58.614Z,71.2
2018-08-25T01:59:39.093Z,71.2
2018-08-25T02:00:19.613Z,71.3
2018-08-25T02:01:00.080Z,71.01
2018-08-25T02:01:40.559Z,71.2
2018-08-25T02:02:21.042Z,71.49
2018-08-25T02:03:01.503Z,71.65
2018-08-25T02:03:42.025Z,71.69
2018-08-25T02:04:22.506Z,71.69
2018-08-25T02:05:03.022Z,71.69
2018-08-25T02:05:43.484Z,71.69
2018-08-25T02:06:23.950Z,71.69
2018-08-25T02:07:04.405Z,71.97
2018-08-25T02:07:44.885Z,71.59
2018-08-25T02:08:25.415Z,71.69
2018-08-25T02:09:05.907Z,71.17
2018-08-25T02:09:46.404Z,71.97
2018-08-25T02:10:26.881Z,71.65
2018-08-25T02:11:07.399Z,72.07
2018-08-25T02:11:47.857Z,71.97
2018-08-25T02:12:28.359Z,71.69
2018-08-25T02:13:08.844Z,71.4
2018-08-25T02:13:49.353Z,71.59
2018-08-25T02:14:29.846Z,71.01
2018-08-25T02:15:10.335Z,71.2
2018-08-25T02:15:50.814Z,70.92
2018-08-25T02:16:31.333Z,71.11
2018-08-25T02:17:11.830Z,70.62
2018-08-25T02:17:52.356Z,70.62
2018-08-25T02:18:32.881Z,69.95
2018-08-25T02:19:13.330Z,69.95
2018-08-25T02:19:53.840Z,70.53
2018-08-25T02:20:34.398Z,70.62
2018-08-25T02:21:14.878Z,69.67
2018-08-25T02:21:55.327Z,69.85
2018-08-25T02:22:35.807Z,69.85
2018-08-25T02:23:16.330Z,69.85
2018-08-25T02:23:56.769Z,69.73
2018-08-25T02:24:37.277Z,69.92
2018-08-25T02:25:17.788Z,70.3
2018-08-25T02:25:58.253Z,69.92
2018-08-25T02:26:38.775Z,70.59
2018-08-25T02:27:19.216Z,69.73
2018-08-25T02:27:59.729Z,69.73
2018-08-25T02:28:40.258Z,70.01
2018-08-25T02:29:20.779Z,69.57
2018-08-25T02:30:01.258Z,69.63
2018-08-25T02:30:41.756Z,70.01
2018-08-25T02:31:22.220Z,70.05
2018-08-25T02:32:02.734Z,69.85
2018-08-25T02:32:43.264Z,69.57
2018-08-25T02:33:23.695Z,69.53
2018-08-25T02:34:04.183Z,69.53
2018-08-25T02:34:44.698Z,69.15
2018-08-25T02:35:25.182Z,68.76
2018-08-25T02:36:05.827Z,69.15
2018-08-25T02:36:46.319Z,69.24
2018-08-25T02:37:26.804Z,69.53
2018-08-25T02:38:07.271Z,69.63
2018-08-25T02:38:47.800Z,69.63
2018-08-25T02:39:28.273Z,69.24
2018-08-25T02:40:08.706Z,69.53
2018-08-25T02:40:49.250Z,68.86
2018-08-25T02:41:29.751Z,68.86
2018-08-25T02:42:10.248Z,69.24
2018-08-25T02:42:50.707Z,69.63
2018-08-25T02:43:31.224Z,69.82
2018-08-25T02:44:11.717Z,70.46
2018-08-25T02:44:52.175Z,70.65
2018-08-25T02:45:32.637Z,71.04
2018-08-25T02:46:13.170Z,70.84
2018-08-25T02:46:53.649Z,70.98
2018-08-25T02:47:34.138Z,71.14
2018-08-25T02:48:14.646Z,70.88
2018-08-25T02:48:55.128Z,71.08
2018-08-25T02:49:35.660Z,70.3
2018-08-25T02:50:16.100Z,70.3
2018-08-25T02:50:56.614Z,70.3
2018-08-25T02:51:37.077Z,70.3
2018-08-25T02:52:17.546Z,70.21
2018-08-25T02:52:58.059Z,70.72
2018-08-25T02:53:38.572Z,70.34
2018-08-25T02:54:19.082Z,70.43
2018-08-25T02:54:59.569Z,70.98
2018-08-25T02:55:40.089Z,70.88
2018-08-25T02:56:20.567Z,71.26
2018-08-25T02:57:01.084Z,71.26
2018-08-25T02:57:41.566Z,71.17
2018-08-25T02:58:22.022Z,71.26
2018-08-25T02:59:02.544Z,71.36
2018-08-25T02:59:42.996Z,72.13
2018-08-25T03:00:23.528Z,72.13
2018-08-25T03:01:04.009Z,71.84
2018-08-25T03:01:44.525Z,71.94
2018-08-25T03:02:24.998Z,72.23
2018-08-25T03:03:05.475Z,71.75
2018-08-25T03:03:46.039Z,71.94
2018-08-25T03:04:26.458Z,72.52
2018-08-25T03:05:07.054Z,72.42
2018-08-25T03:05:47.479Z,72.8
2018-08-25T03:06:27.934Z,72.71
2018-08-25T03:07:08.485Z,72.61
2018-08-25T03:07:48.911Z,73.09
2018-08-25T03:08:29.438Z,73.35
2018-08-25T03:09:09.914Z,72.96
2018-08-25T03:09:50.433Z,73.44
2018-08-25T03:10:30.945Z,73.83
2018-08-25T03:11:11.449Z,74.02
2018-08-25T03:11:51.956Z,73.92
2018-08-25T03:12:32.411Z,73.63
2018-08-25T03:13:12.928Z,74.6
2018-08-25T03:13:53.522Z,74.6
2018-08-25T03:14:33.898Z,73.54
2018-08-25T03:15:14.383Z,74.5
2018-08-25T03:15:54.858Z,74.37
2018-08-25T03:16:35.347Z,74.6
2018-08-25T03:17:15.869Z,74.65
2018-08-25T03:17:56.339Z,74.85
2018-08-25T03:18:36.840Z,75.07
2018-08-25T03:19:17.342Z,75.07
2018-08-25T03:19:57.850Z,74.88
2018-08-25T03:20:38.353Z,74.94
2018-08-25T03:21:18.806Z,75.23
2018-08-25T03:21:59.320Z,74.98
2018-08-25T03:22:39.778Z,74.88
2018-08-25T03:23:20.337Z,74.98
2018-08-25T03:24:00.808Z,75.65
2018-08-25T03:24:41.301Z,75.32
2018-08-25T03:25:21.784Z,75.23
2018-08-25T03:26:02.307Z,75.81
2018-08-25T03:26:42.749Z,75.65
2018-08-25T03:27:23.247Z,75.75
2018-08-25T03:28:03.731Z,75.32
2018-08-25T03:28:44.241Z,75.27
2018-08-25T03:29:24.830Z,75.37
2018-08-25T03:30:05.247Z,75.75
2018-08-25T03:30:45.779Z,75.65
2018-08-25T03:31:26.249Z,75.37
2018-08-25T03:32:06.758Z,75.62
2018-08-25T03:32:47.285Z,76.09
2018-08-25T03:33:27.694Z,75.84
2018-08-25T03:34:08.223Z,75.94
2018-08-25T03:34:48.738Z,75.65
2018-08-25T03:35:29.327Z,76.42
2018-08-25T03:36:09.834Z,76.14
2018-08-25T03:36:50.375Z,76.14
2018-08-25T03:37:30.848Z,76.23
2018-08-25T03:38:11.359Z,75.65
2018-08-25T03:38:51.854Z,76.23
2018-08-25T03:39:32.348Z,76.14
2018-08-25T03:40:12.919Z,76.14
2018-08-25T03:40:53.350Z,76.04
2018-08-25T03:41:33.821Z,76.32
2018-08-25T03:42:14.374Z,76.23
2018-08-25T03:42:54.817Z,76.48
2018-08-25T03:43:35.295Z,76.86
2018-08-25T03:44:15.810Z,76.77
2018-08-25T03:44:56.235Z,77.06
2018-08-25T03:45:36.822Z,76.86
2018-08-25T03:46:17.274Z,76.96
2018-08-25T03:46:57.743Z,77.15
2018-08-25T03:47:38.265Z,77.15
2018-08-25T03:48:18.751Z,76.81
2018-08-25T03:48:59.198Z,77.06
2018-08-25T03:49:39.745Z,77.58
2018-08-25T03:50:20.240Z,77.15
2018-08-25T03:51:00.706Z,77.38
2018-08-25T03:51:41.209Z,77.53
2018-08-25T03:52:21.754Z,77.15
2018-08-25T03:53:02.213Z,77.48
2018-08-25T03:53:42.774Z,77.63
2018-08-25T03:54:23.256Z,77.67
2018-08-25T03:55:03.737Z,77.38
2018-08-25T03:55:44.204Z,77.09
2018-08-25T03:56:24.667Z,76.42
2018-08-25T03:57:05.180Z,76.42
2018-08-25T03:57:45.663Z,76.61
2018-08-25T03:58:26.163Z,76.81
2018-08-25T03:59:06.634Z,76.9
2018-08-25T03:59:47.151Z,77.15
2018-08-25T04:00:27.595Z,77.34
2018-08-25T04:01:08.090Z,77.19
2018-08-25T04:01:48.615Z,77.15
2018-08-25T04:02:29.099Z,77.06
2018-08-25T04:03:09.565Z,77.09
2018-08-25T04:03:50.165Z,77.38
2018-08-25T04:04:30.660Z,77.25
2018-08-25T04:05:11.166Z,77.09
2018-08-25T04:05:51.699Z,77.09
2018-08-25T04:06:32.243Z,77.15
2018-08-25T04:07:12.696Z,76.9
2018-08-25T04:07:53.216Z,77.19
2018-08-25T04:08:33.653Z,77.19
2018-08-25T04:09:14.172Z,76.71
2018-08-25T04:09:54.672Z,76.9
2018-08-25T04:10:35.217Z,77.09
2018-08-25T04:11:15.662Z,77.19
2018-08-25T04:11:56.165Z,77.19
2018-08-25T04:12:36.649Z,77.58
2018-08-25T04:13:17.207Z,77.19
2018-08-25T04:13:57.663Z,76.52
2018-08-25T04:14:38.168Z,76.81
2018-08-25T04:15:18.612Z,76.42
2018-08-25T04:15:59.157Z,76.9
2018-08-25T04:16:39.637Z,77.25
2018-08-25T04:17:20.088Z,77.09
2018-08-25T04:18:00.584Z,77.38
2018-08-25T04:18:41.074Z,77.29
2018-08-25T04:19:21.597Z,77.15
2018-08-25T04:20:02.097Z,77.34
2018-08-25T04:20:42.549Z,77.25
2018-08-25T04:21:23.058Z,77.63
2018-08-25T04:22:03.633Z,77.25
2018-08-25T04:22:44.166Z,77.73
2018-08-25T04:23:24.637Z,77.25
2018-08-25T04:24:05.105Z,77.58
2018-08-25T04:24:45.642Z,77.63
2018-08-25T04:25:26.102Z,77.73
2018-08-25T04:26:06.625Z,77.63
2018-08-25T04:26:47.140Z,78.3
2018-08-25T04:27:27.634Z,78.3
2018-08-25T04:28:08.163Z,77.73
2018-08-25T04:28:48.625Z,78.02
2018-08-25T04:29:29.181Z,78.4
2018-08-25T04:30:09.667Z,78.3
2018-08-25T04:30:50.375Z,78.5
2018-08-25T04:31:30.868Z,78.11
2018-08-25T04:32:11.336Z,77.34
2018-08-25T04:32:51.846Z,77.83
2018-08-25T04:33:32.427Z,77.53
2018-08-25T04:34:12.847Z,78.02
2018-08-25T04:34:53.371Z,78.21
2018-08-25T04:35:33.860Z,77.96
2018-08-25T04:36:14.329Z,77.63
2018-08-25T04:36:54.794Z,78.02
2018-08-25T04:37:35.379Z,78.21
2018-08-25T04:38:15.850Z,78.02
2018-08-25T04:38:56.363Z,78.11
2018-08-25T04:39:37.621Z,78.5
2018-08-25T04:40:18.117Z,78.3
2018-08-25T04:40:58.676Z,78.88
2018-08-25T04:41:39.154Z,78.69
2018-08-25T04:42:19.618Z,78.5
2018-08-25T04:43:00.151Z,78.88
2018-08-25T04:43:40.608Z,78.78
2018-08-25T04:44:21.103Z,78.78
2018-08-25T04:45:01.610Z,78.69
2018-08-25T04:45:42.072Z,78.78
2018-08-25T04:46:22.548Z,78.69
2018-08-25T04:47:03.063Z,78.5
2018-08-25T04:47:43.534Z,78.02
2018-08-25T04:48:24.065Z,78.02
2018-08-25T04:49:04.600Z,78.3
2018-08-25T04:49:45.067Z,78.4
2018-08-25T04:50:25.578Z,78.4
2018-08-25T04:51:06.041Z,78.4
2018-08-25T04:51:47.362Z,78.25
2018-08-25T04:52:27.894Z,78.02
2018-08-25T04:53:08.356Z,77.76
2018-08-25T04:53:48.925Z,77.73
2018-08-25T04:54:29.388Z,77.67
2018-08-25T04:55:09.876Z,77.53
2018-08-25T04:55:50.351Z,77.58
2018-08-25T04:56:30.818Z,77.83
2018-08-25T04:57:11.334Z,78.4
2018-08-25T04:57:51.866Z,78.3
2018-08-25T04:58:32.352Z,78.11
2018-08-25T04:59:12.873Z,77.67
2018-08-25T04:59:53.337Z,77.06
2018-08-25T05:00:33.853Z,77.63
2018-08-25T05:01:14.332Z,78.02
2018-08-25T05:01:54.870Z,77.63
2018-08-25T05:02:35.336Z,77.83
2018-08-25T05:03:15.809Z,77.48
2018-08-25T05:03:56.297Z,77.67
2018-08-25T05:04:37.594Z,77.48
2018-08-25T05:05:18.123Z,76.9
2018-08-25T05:05:58.636Z,77.15
2018-08-25T05:06:39.088Z,77.34
2018-08-25T05:07:19.594Z,77.58
2018-08-25T05:08:00.089Z,77.34
2018-08-25T05:08:40.577Z,77.76
2018-08-25T05:09:21.051Z,77.48
2018-08-25T05:10:01.664Z,77.58
2018-08-25T05:10:42.140Z,76.71
2018-08-25T05:11:22.604Z,76.9
2018-08-25T05:12:03.074Z,76.9
2018-08-25T05:12:43.617Z,76.9
2018-08-25T05:13:24.088Z,76.81
2018-08-25T05:14:04.590Z,76.14
2018-08-25T05:14:45.096Z,76.32
2018-08-25T05:15:25.612Z,76.61
2018-08-25T05:16:06.037Z,76.42
2018-08-25T05:16:46.576Z,76.42
2018-08-25T05:17:27.086Z,76.23
2018-08-25T05:18:07.653Z,76.52
2018-08-25T05:18:48.084Z,77.09
2018-08-25T05:19:28.661Z,77.38
2018-08-25T05:20:09.540Z,77.19
2018-08-25T05:20:50.042Z,77.38
2018-08-25T05:21:30.493Z,77.38
2018-08-25T05:22:11.029Z,77.15
2018-08-25T05:22:51.476Z,77.38
2018-08-25T05:23:31.999Z,77.19
2018-08-25T05:24:12.490Z,76.61
2018-08-25T05:24:52.979Z,76.32
2018-08-25T05:25:33.476Z,76.52
2018-08-25T05:26:13.945Z,76.81
2018-08-25T05:26:56.206Z,76.14
2018-08-25T05:27:36.701Z,76.26
2018-08-25T05:28:17.149Z,75.84
2018-08-25T05:28:57.666Z,76.52
2018-08-25T05:29:38.159Z,76.32
2018-08-25T05:30:18.657Z,76.14
2018-08-25T05:30:59.121Z,76.23
2018-08-25T05:31:39.606Z,76.32
2018-08-25T05:32:20.137Z,76.71
2018-08-25T05:33:00.777Z,76.61
2018-08-25T05:33:41.379Z,76.52
2018-08-25T05:34:21.848Z,76.29
2018-08-25T05:35:02.367Z,77
2018-08-25T05:35:42.852Z,77.06
2018-08-25T05:36:23.310Z,76.48
2018-08-25T05:37:03.818Z,76.52
2018-08-25T05:37:44.300Z,76.42
2018-08-25T05:38:24.756Z,76.32
2018-08-25T05:39:05.272Z,76.04
2018-08-25T05:39:45.759Z,76.14
2018-08-25T05:40:26.275Z,76.14
2018-08-25T05:41:06.747Z,75.56
2018-08-25T05:41:47.258Z,75.46
2018-08-25T05:42:27.806Z,75.07
2018-08-25T05:43:08.222Z,75.17
2018-08-25T05:43:48.712Z,75.46
2018-08-25T05:44:29.302Z,75.37
2018-08-25T05:45:09.714Z,75.56
2018-08-25T05:45:50.198Z,74.88
2018-08-25T05:46:30.640Z,75.27
2018-08-25T05:47:11.485Z,75.46
2018-08-25T05:47:52.170Z,75.46
2018-08-25T05:48:32.705Z,75.46
2018-08-25T05:49:13.163Z,75.46
2018-08-25T05:49:53.672Z,75.07
2018-08-25T05:50:34.238Z,74.98
2018-08-25T05:51:14.755Z,74.98
2018-08-25T05:51:55.257Z,74.79
2018-08-25T05:52:35.698Z,75.07
2018-08-25T05:53:16.169Z,75.07
2018-08-25T05:53:56.974Z,75.07
2018-08-25T05:54:37.486Z,75.46
2018-08-25T05:55:17.965Z,75.07
2018-08-25T05:55:58.497Z,74.98
2018-08-25T05:56:38.995Z,74.88
2018-08-25T05:57:19.470Z,74.88
2018-08-25T05:57:59.969Z,74.88
2018-08-25T05:58:40.447Z,74.98
2018-08-25T05:59:20.965Z,75.07
2018-08-25T06:00:01.441Z,75.17
2018-08-25T06:00:41.959Z,75.07
2018-08-25T06:01:22.360Z,75.75
2018-08-25T06:02:02.977Z,75.17
2018-08-25T06:02:43.350Z,75.07
2018-08-25T06:03:23.925Z,75.46
2018-08-25T06:04:04.403Z,75.27
2018-08-25T06:04:44.932Z,75.37
2018-08-25T06:05:25.398Z,75.65
2018-08-25T06:06:05.905Z,75.65
2018-08-25T06:06:46.403Z,75.65
2018-08-25T06:07:26.909Z,75.17
2018-08-25T06:08:07.402Z,75.07
2018-08-25T06:08:47.898Z,75.07
2018-08-25T06:09:28.427Z,75.56
2018-08-25T06:10:08.894Z,75.65
2018-08-25T06:10:49.858Z,75.37
2018-08-25T06:11:30.360Z,75.46
2018-08-25T06:12:10.850Z,75.07
2018-08-25T06:12:51.358Z,75.84
2018-08-25T06:13:31.956Z,75.27
2018-08-25T06:14:12.408Z,75.46
2018-08-25T06:14:52.925Z,75.94
2018-08-25T06:15:33.407Z,75.75
2018-08-25T06:16:13.908Z,75.84
2018-08-25T06:16:54.397Z,75.65
2018-08-25T06:17:37.617Z,76.04
2018-08-25T06:18:18.061Z,75.56
2018-08-25T06:18:58.586Z,75.94
2018-08-25T06:19:39.064Z,75.65
2018-08-25T06:20:19.697Z,76.23
2018-08-25T06:21:00.176Z,76.14
2018-08-25T06:21:40.698Z,75.75
2018-08-25T06:22:21.132Z,76.14
2018-08-25T06:23:01.628Z,76.14
2018-08-25T06:23:42.111Z,75.84
2018-08-25T06:24:22.662Z,76.04
2018-08-25T06:25:03.149Z,75.88
2018-08-25T06:25:43.883Z,75.94
2018-08-25T06:26:24.340Z,76.17
2018-08-25T06:27:04.902Z,75.98
2018-08-25T06:27:45.330Z,76.17
2018-08-25T06:28:25.940Z,76.17
2018-08-25T06:29:06.384Z,75.98
2018-08-25T06:29:46.949Z,76.56
2018-08-25T06:30:27.388Z,76.84
2018-08-25T06:31:07.835Z,76.46
2018-08-25T06:31:48.301Z,76.36
2018-08-25T06:32:28.790Z,76.32
2018-08-25T06:33:09.263Z,76.75
2018-08-25T06:33:49.757Z,76.75
2018-08-25T06:34:30.274Z,76.84
2018-08-25T06:35:10.753Z,76.84
2018-08-25T06:35:51.355Z,76.84
2018-08-25T06:36:31.786Z,76.65
2018-08-25T06:37:12.217Z,76.94
2018-08-25T06:37:52.719Z,77.13
2018-08-25T06:38:33.211Z,77.51
2018-08-25T06:39:13.757Z,76.84
2018-08-25T06:39:54.221Z,77.23
2018-08-25T06:40:34.765Z,77.13
2018-08-25T06:41:15.243Z,77.23
2018-08-25T06:41:55.709Z,77.81
2018-08-25T06:42:36.339Z,77.51
2018-08-25T06:43:16.676Z,77.61
2018-08-25T06:43:57.231Z,77.9
2018-08-25T06:44:37.669Z,77.42
2018-08-25T06:45:18.167Z,77.58
2018-08-25T06:45:58.658Z,77.42
2018-08-25T06:46:39.207Z,78.28
2018-08-25T06:47:19.681Z,78.38
2018-08-25T06:48:00.165Z,78.48
2018-08-25T06:48:40.649Z,78.92
2018-08-25T06:49:21.118Z,78.77
2018-08-25T06:50:01.700Z,78.86
2018-08-25T06:50:42.213Z,78.67
2018-08-25T06:51:22.722Z,78.48
2018-08-25T06:52:03.267Z,78.58
2018-08-25T06:52:43.792Z,78
2018-08-25T06:53:24.430Z,78
2018-08-25T06:54:04.849Z,78.77
2018-08-25T06:54:45.324Z,78.77
2018-08-25T06:55:25.791Z,78.19
2018-08-25T06:56:06.303Z,78.77
2018-08-25T06:56:46.821Z,78.86
2018-08-25T06:57:27.253Z,78.48
2018-08-25T06:58:07.775Z,78.48
2018-08-25T06:58:48.265Z,78.86
2018-08-25T06:59:28.773Z,78.86
2018-08-25T07:00:09.204Z,78.58
2018-08-25T07:00:49.717Z,78.67
2018-08-25T07:01:30.222Z,78.86
2018-08-25T07:02:10.720Z,78.38
2018-08-25T07:02:51.249Z,78.96
2018-08-25T07:03:31.743Z,78.77
2018-08-25T07:04:12.355Z,79.25
2018-08-25T07:04:52.845Z,79.05
2018-08-25T07:05:33.305Z,78.86
2018-08-25T07:06:13.906Z,79.05
2018-08-25T07:06:54.391Z,78.86
2018-08-25T07:07:34.871Z,78.58
2018-08-25T07:08:15.505Z,78.96
2018-08-25T07:08:55.944Z,79.05
2018-08-25T07:09:36.451Z,79.15
2018-08-25T07:10:16.912Z,79
2018-08-25T07:10:57.476Z,78.86
2018-08-25T07:11:37.977Z,79.73
2018-08-25T07:12:18.417Z,80.02
2018-08-25T07:12:59.322Z,79.82
2018-08-25T07:13:39.740Z,80.02
2018-08-25T07:14:20.469Z,79.53
2018-08-25T07:15:00.950Z,80.5
2018-08-25T07:15:41.482Z,80.02
2018-08-25T07:16:22.313Z,79.63
2018-08-25T07:17:02.821Z,79.73
2018-08-25T07:17:43.307Z,80.73
2018-08-25T07:18:24.067Z,79.53
2018-08-25T07:19:04.676Z,79.92
2018-08-25T07:19:45.123Z,79.73
2018-08-25T07:20:25.673Z,79.44
2018-08-25T07:21:06.210Z,79.82
2018-08-25T07:21:46.668Z,80.11
2018-08-25T07:22:27.143Z,80.35
2018-08-25T07:23:07.670Z,80.25
2018-08-25T07:23:48.994Z,80.4
2018-08-25T07:24:28.996Z,80.11
2018-08-25T07:25:09.501Z,80.25
2018-08-25T07:25:50.059Z,80.11
2018-08-25T07:26:30.669Z,80.15
2018-08-25T07:27:11.166Z,80.63
2018-08-25T07:27:51.692Z,80.54
2018-08-25T07:28:32.353Z,80.06
2018-08-25T07:29:12.848Z,79.96
2018-08-25T07:29:53.364Z,80.25
2018-08-25T07:30:33.909Z,80.11
2018-08-25T07:31:14.382Z,81.07
2018-08-25T07:31:54.906Z,81.37
2018-08-25T07:32:35.412Z,80.3
2018-08-25T07:33:15.923Z,80.4
2018-08-25T07:33:56.676Z,80.69
2018-08-25T07:34:37.183Z,80.6
2018-08-25T07:35:17.678Z,80.88
2018-08-25T07:35:58.187Z,81.99
2018-08-25T07:36:38.664Z,82.42
2018-08-25T07:37:19.869Z,82.61
2018-08-25T07:38:00.292Z,82.57
2018-08-25T07:38:40.929Z,82.86
2018-08-25T07:39:22.391Z,83.15
2018-08-25T07:40:02.879Z,82.61
2018-08-25T07:40:43.372Z,82.42
2018-08-25T07:41:23.921Z,83.09
2018-08-25T07:42:04.307Z,82.52
2018-08-25T07:42:44.886Z,82.71
2018-08-25T07:43:25.667Z,82.42
2018-08-25T07:44:05.937Z,82.14
2018-08-25T07:44:46.435Z,81.94
2018-08-25T07:45:27.193Z,82.38
2018-08-25T07:46:07.792Z,82.52
2018-08-25T07:46:48.353Z,81.84
2018-08-25T07:47:29.074Z,81.75
2018-08-25T07:48:09.667Z,82.32
2018-08-25T07:48:50.231Z,81.84
2018-08-25T07:49:30.898Z,81.37
2018-08-25T07:50:11.483Z,81.42
2018-08-25T07:50:51.921Z,81.61
2018-08-25T07:51:33.019Z,81.75
2018-08-25T07:52:13.507Z,81.42
2018-08-25T07:52:54.004Z,81.13
2018-08-25T07:53:34.630Z,81.32
2018-08-25T07:54:15.104Z,81.9
2018-08-25T07:54:55.561Z,81.04
2018-08-25T07:55:36.051Z,81.04
2018-08-25T07:56:16.554Z,81.71
2018-08-25T07:56:57.084Z,81.04
2018-08-25T07:57:37.558Z,81.04
2018-08-25T07:58:18.051Z,80.65
2018-08-25T07:58:58.666Z,79.79
2018-08-25T07:59:39.081Z,79.4
2018-08-25T08:00:19.555Z,79.53
2018-08-25T08:01:00.048Z,79.79
2018-08-25T08:01:40.585Z,79.44
2018-08-25T08:02:21.085Z,79.44
2018-08-25T08:03:01.560Z,80.3
2018-08-25T08:03:42.060Z,79.73
2018-08-25T08:04:22.559Z,79.05
2018-08-25T08:05:03.630Z,78.77
2018-08-25T08:05:44.144Z,78.25
2018-08-25T08:06:24.642Z,78.67
2018-08-25T08:07:05.114Z,77.86
2018-08-25T08:07:45.662Z,78.34
2018-08-25T08:08:26.167Z,78.34
2018-08-25T08:09:06.665Z,78.44
2018-08-25T08:09:47.117Z,78.63
2018-08-25T08:10:27.799Z,79.02
2018-08-25T08:11:08.321Z,78.53
2018-08-25T08:11:48.814Z,78.83
2018-08-25T08:12:29.590Z,78.73
2018-08-25T08:13:10.177Z,78.83
2018-08-25T08:13:50.666Z,79.35
2018-08-25T08:14:31.164Z,78.63
2018-08-25T08:15:11.656Z,79.02
2018-08-25T08:15:52.283Z,79.88
2018-08-25T08:16:32.772Z,79.02
2018-08-25T08:17:13.566Z,79.11
2018-08-25T08:17:54.121Z,78.83
2018-08-25T08:18:34.584Z,80.36
2018-08-25T08:19:15.129Z,79.6
2018-08-25T08:19:56.058Z,79.6
2018-08-25T08:20:36.577Z,78.96
2018-08-25T08:21:17.065Z,78.92
2018-08-25T08:21:57.595Z,79.79
2018-08-25T08:22:38.107Z,79.5
2018-08-25T08:23:18.592Z,79.88
2018-08-25T08:23:59.079Z,80.07
2018-08-25T08:24:39.574Z,80.17
2018-08-25T08:25:20.132Z,80.75
2018-08-25T08:26:00.634Z,81.42
2018-08-25T08:26:41.122Z,80.65
2018-08-25T08:27:21.633Z,80.65
2018-08-25T08:28:02.323Z,81.23
2018-08-25T08:28:42.806Z,81.42
2018-08-25T08:29:23.387Z,81.38
2018-08-25T08:30:03.878Z,81.81
2018-08-25T08:30:44.363Z,82.09
2018-08-25T08:31:24.939Z,81.13
2018-08-25T08:32:05.361Z,80.84
2018-08-25T08:32:45.807Z,81.61
2018-08-25T08:33:26.325Z,81.13
2018-08-25T08:34:06.849Z,80.46
2018-08-25T08:34:47.304Z,81.27
2018-08-25T08:35:27.792Z,80.94
2018-08-25T08:36:09.081Z,79.88
2018-08-25T08:36:49.653Z,80.46
2018-08-25T08:37:30.150Z,81.07
2018-08-25T08:38:10.699Z,80.4
2018-08-25T08:38:51.196Z,80.69
2018-08-25T08:39:31.709Z,79.6
2018-08-25T08:40:12.309Z,79.6
2018-08-25T08:40:52.758Z,80.46
2018-08-25T08:41:33.317Z,79.98
2018-08-25T08:42:13.815Z,80.55
2018-08-25T08:42:55.120Z,81.04
2018-08-25T08:43:35.648Z,81.13
2018-08-25T08:44:16.124Z,81.23